createdAt,value
2023-09-06T00:02:45.232Z,11.80
2023-09-06T00:07:47.842Z,14.10
2023-09-06T00:12:50.483Z,13.10
2023-09-06T00:17:54.537Z,11.60
2023-09-06T00:23:00.471Z,12.90
2023-09-06T00:28:07.525Z,14.20
2023-09-06T00:33:10.737Z,14.70
2023-09-06T00:38:13.950Z,11.40
2023-09-06T00:43:16.667Z,11.60
2023-09-06T00:48:31.184Z,10.70
2023-09-06T00:53:34.203Z,9.80
2023-09-06T00:58:37.982Z,11.10
2023-09-06T01:03:43.775Z,12.70
2023-09-06T01:09:00.093Z,9.90
2023-09-06T01:19:14.514Z,12.80
2023-09-06T01:24:18.535Z,11.90
2023-09-06T01:29:21.845Z,11.30
2023-09-06T01:34:24.484Z,10.70
2023-09-06T01:39:28.335Z,11.70
2023-09-06T01:44:33.338Z,13.50
2023-09-06T01:49:35.953Z,16.20
2023-09-06T01:54:38.452Z,14.50
2023-09-06T01:59:41.103Z,23.40
2023-09-06T02:04:44.286Z,13.70
2023-09-06T02:09:46.796Z,12.60
2023-09-06T02:14:50.518Z,13.30
2023-09-06T02:19:54.023Z,14.10
2023-09-06T02:24:56.725Z,17.00
2023-09-06T02:29:59.274Z,13.90
2023-09-06T02:35:03.392Z,12.70
2023-09-06T02:40:19.648Z,14.30
2023-09-06T02:45:24.117Z,13.70
2023-09-06T02:50:27.414Z,13.90
2023-09-06T02:55:30.251Z,16.10
2023-09-06T03:00:37.473Z,15.10
2023-09-06T03:05:43.555Z,13.20
2023-09-06T03:10:46.040Z,16.30
2023-09-06T03:15:52.951Z,13.50
2023-09-06T03:20:56.786Z,17.10
2023-09-06T03:25:59.948Z,13.10
2023-09-06T03:31:02.703Z,12.90
2023-09-06T03:36:09.050Z,16.10
2023-09-06T03:41:11.752Z,13.30
2023-09-06T03:46:16.022Z,14.40
2023-09-06T03:51:20.617Z,17.70
2023-09-06T03:56:23.867Z,15.70
2023-09-06T04:01:28.229Z,16.40
2023-09-06T04:06:30.848Z,14.60
2023-09-06T04:11:33.281Z,17.20
2023-09-06T04:16:39.325Z,16.40
2023-09-06T04:21:42.694Z,15.50
2023-09-06T04:26:45.350Z,18.20
2023-09-06T04:31:47.820Z,15.50
2023-09-06T04:36:50.891Z,15.10
2023-09-06T04:41:53.454Z,15.00
2023-09-06T04:46:56.260Z,16.70
2023-09-06T04:51:58.904Z,17.10
2023-09-06T04:57:02.207Z,16.50
2023-09-06T05:02:05.368Z,13.60
2023-09-06T05:07:07.908Z,13.50
2023-09-06T05:12:10.720Z,18.90
2023-09-06T05:17:13.236Z,18.00
2023-09-06T05:22:15.976Z,18.80
2023-09-06T05:27:19.257Z,19.10
2023-09-06T05:32:23.946Z,17.90
2023-09-06T05:37:27.862Z,15.60
2023-09-06T05:42:30.491Z,13.40
2023-09-06T05:47:34.779Z,17.00
2023-09-06T05:52:37.680Z,18.00
2023-09-06T05:57:40.734Z,14.10
2023-09-06T06:02:45.922Z,15.30
2023-09-06T06:07:49.192Z,17.10
2023-09-06T06:12:52.643Z,14.00
2023-09-06T06:17:55.273Z,17.00
2023-09-06T06:28:00.312Z,12.40
2023-09-06T06:33:04.099Z,15.80
2023-09-06T06:38:09.181Z,13.40
2023-09-06T06:43:13.178Z,12.90
2023-09-06T06:48:15.877Z,16.50
2023-09-06T08:02:40.988Z,10.10
2023-09-06T08:07:44.872Z,12.20
2023-09-06T08:12:47.979Z,26.00
2023-09-06T08:17:51.325Z,7.10
2023-09-06T08:22:54.301Z,8.80
2023-09-06T08:27:57.501Z,7.20
2023-09-06T08:33:00.638Z,7.80
2023-09-06T08:38:04.137Z,7.30
2023-09-06T08:43:07.217Z,6.20
2023-09-06T08:48:10.637Z,7.20
2023-09-06T08:53:16.518Z,7.40
2023-09-06T08:58:22.784Z,8.40
2023-09-06T09:03:25.918Z,5.80
2023-09-06T09:08:31.963Z,5.90
2023-09-06T09:13:34.850Z,5.70
2023-09-06T09:18:45.573Z,16.40
2023-09-06T09:23:57.147Z,10.20
2023-09-06T09:29:04.874Z,6.90
2023-09-06T09:34:07.869Z,6.90
2023-09-06T09:39:15.001Z,9.00
2023-09-06T09:44:21.012Z,8.00
2023-09-06T09:49:26.654Z,6.70
2023-09-06T09:54:36.773Z,12.40
2023-09-06T09:59:43.764Z,10.90
2023-09-06T10:04:47.860Z,7.70
2023-09-06T10:09:51.799Z,7.30
2023-09-06T10:14:56.032Z,11.40
2023-09-06T10:19:58.732Z,7.60
2023-09-06T10:25:08.623Z,7.50
2023-09-06T10:30:13.187Z,25.10
2023-09-06T10:35:31.463Z,8.50
2023-09-06T10:41:07.887Z,5.30
2023-09-06T10:46:10.829Z,4.90
2023-09-06T10:51:15.686Z,6.00
2023-09-06T10:56:30.057Z,5.10
2023-09-06T11:01:46.690Z,5.50
2023-09-06T11:06:56.555Z,6.40
2023-09-06T11:12:00.144Z,7.10
2023-09-06T11:17:02.645Z,5.40
2023-09-06T11:22:11.858Z,6.90
2023-09-06T11:27:35.195Z,9.60
2023-09-06T11:32:46.225Z,4.30
2023-09-06T11:37:54.175Z,5.00
2023-09-06T11:43:03.815Z,5.70
2023-09-06T11:48:10.774Z,8.60
2023-09-06T11:53:16.577Z,4.00
2023-09-06T11:58:30.823Z,5.30
2023-09-06T12:03:36.857Z,7.10
2023-09-06T12:08:39.863Z,5.60
2023-09-06T12:13:42.779Z,5.00
2023-09-06T12:18:46.592Z,4.90
2023-09-06T12:23:49.906Z,6.50
2023-09-06T12:28:52.710Z,7.10
2023-09-06T12:33:58.054Z,5.70
2023-09-06T12:39:00.669Z,5.00
2023-09-06T12:44:05.376Z,7.80
2023-09-06T12:49:09.955Z,8.50
2023-09-06T12:54:12.666Z,3.90
2023-09-06T12:59:15.332Z,5.90
2023-09-06T13:04:18.208Z,7.10
2023-09-06T13:09:22.996Z,4.30
2023-09-06T13:14:25.612Z,6.90
2023-09-06T13:19:28.249Z,5.10
2023-09-06T13:24:34.612Z,7.00
2023-09-06T13:29:39.924Z,5.10
2023-09-06T13:34:42.670Z,4.00
2023-09-06T13:39:45.769Z,5.90
2023-09-06T13:44:49.464Z,6.30
2023-09-06T13:49:53.094Z,7.70
2023-09-06T13:54:55.599Z,6.70
2023-09-06T13:59:58.389Z,4.80
2023-09-06T14:05:01.628Z,5.90
2023-09-06T14:10:05.391Z,6.10
2023-09-06T14:15:08.746Z,6.70
2023-09-06T14:20:11.961Z,5.80
2023-09-06T14:25:14.567Z,6.10
2023-09-06T14:30:17.461Z,4.90
2023-09-06T14:35:20.808Z,6.30
2023-09-06T14:40:23.629Z,5.10
2023-09-06T14:45:28.593Z,5.80
2023-09-06T14:50:32.949Z,4.80
2023-09-06T14:55:35.764Z,4.80
2023-09-06T15:00:38.409Z,7.80
2023-09-06T15:05:44.024Z,6.00
2023-09-06T15:10:53.379Z,7.00
2023-09-06T15:15:56.988Z,7.90
2023-09-06T15:21:02.449Z,6.70
2023-09-06T15:26:07.210Z,7.70
2023-09-06T15:31:09.860Z,6.30
2023-09-06T15:36:12.529Z,13.20
2023-09-06T15:41:20.358Z,6.90
2023-09-06T15:46:23.414Z,20.60
2023-09-06T15:51:26.851Z,14.90
2023-09-06T15:56:30.094Z,10.30
2023-09-06T16:01:33.549Z,9.60
2023-09-06T16:06:36.859Z,6.30
2023-09-06T16:11:40.531Z,6.00
2023-09-06T16:16:43.032Z,7.00
2023-09-06T16:21:45.593Z,7.60
2023-09-06T16:26:48.777Z,7.70
2023-09-06T16:31:51.956Z,7.50
2023-09-06T16:36:54.603Z,11.60
2023-09-06T16:41:57.006Z,7.50
2023-09-06T16:47:00.682Z,10.00
2023-09-06T16:52:09.332Z,13.30
2023-09-06T16:57:12.704Z,13.50
2023-09-06T17:02:15.710Z,11.60
2023-09-06T17:07:23.365Z,14.90
2023-09-06T17:12:28.342Z,13.90
2023-09-06T17:17:31.511Z,18.70
2023-09-06T17:22:37.546Z,17.20
2023-09-06T17:27:43.384Z,13.40
2023-09-06T17:33:15.155Z,19.00
2023-09-06T17:38:19.370Z,17.90
2023-09-06T17:43:23.617Z,16.40
2023-09-06T17:48:27.560Z,29.30
2023-09-06T17:53:34.277Z,25.80
2023-09-06T17:58:39.924Z,29.90
2023-09-06T18:03:52.816Z,36.40
2023-09-06T18:09:21.362Z,51.10
2023-09-06T18:14:53.892Z,40.90
2023-09-06T18:19:59.091Z,43.80
2023-09-06T18:25:02.665Z,49.40
2023-09-06T18:30:11.812Z,49.20
2023-09-06T18:35:16.870Z,60.70
2023-09-06T18:40:20.698Z,63.50
2023-09-06T18:45:23.921Z,57.50
2023-09-06T18:50:27.472Z,71.20
2023-09-06T18:55:31.114Z,67.30
2023-09-06T19:00:35.898Z,61.60
2023-09-06T19:05:39.422Z,41.30
2023-09-06T19:10:43.470Z,46.50
2023-09-06T19:15:50.716Z,35.50
2023-09-06T19:20:54.002Z,35.00
2023-09-06T19:25:57.595Z,34.40
2023-09-06T19:31:01.612Z,45.20
2023-09-06T19:36:05.071Z,32.30
2023-09-06T19:41:08.305Z,34.40
2023-09-06T19:46:11.191Z,36.10
2023-09-06T19:51:13.929Z,28.40
2023-09-06T19:56:18.306Z,26.30
2023-09-06T20:01:22.142Z,26.70
2023-09-06T20:06:25.256Z,25.10
2023-09-06T20:11:29.399Z,28.80
2023-09-06T20:16:31.964Z,25.70
2023-09-06T20:21:34.906Z,31.90
2023-09-06T20:26:42.883Z,22.30
2023-09-06T20:31:46.073Z,28.40
2023-09-06T20:36:48.959Z,25.90
2023-09-06T20:41:52.370Z,24.90
2023-09-06T20:52:08.698Z,22.50
2023-09-06T20:57:12.584Z,28.20
2023-09-06T21:02:15.745Z,26.10
2023-09-06T21:07:18.630Z,42.40
2023-09-06T21:12:21.675Z,26.60
2023-09-06T21:17:24.516Z,28.90
2023-09-06T21:22:30.046Z,28.40
2023-09-06T21:27:32.601Z,37.30
2023-09-06T21:32:36.449Z,51.40
2023-09-06T21:37:40.363Z,49.00
2023-09-06T21:42:42.913Z,50.10
2023-09-06T21:47:47.986Z,35.10
2023-09-06T21:52:50.532Z,35.20
2023-09-06T21:58:06.997Z,34.00
2023-09-06T22:03:11.982Z,31.80
2023-09-06T22:08:14.374Z,27.10
2023-09-06T22:13:18.573Z,22.70
2023-09-06T22:18:21.294Z,20.50
2023-09-06T22:23:25.172Z,19.80
2023-09-06T22:28:32.592Z,21.60
2023-09-06T22:33:36.157Z,20.00
2023-09-06T22:38:38.787Z,15.60
2023-09-06T22:43:41.472Z,15.00
2023-09-06T22:48:54.356Z,17.50
2023-09-06T22:53:58.099Z,19.90
2023-09-06T22:59:01.268Z,15.20
2023-09-06T23:04:05.993Z,16.40
2023-09-06T23:09:12.329Z,16.40
2023-09-06T23:14:18.736Z,15.20
2023-09-06T23:19:28.772Z,17.20
2023-09-06T23:24:32.494Z,17.90
2023-09-06T23:29:40.996Z,20.80
2023-09-06T23:34:48.817Z,14.80
2023-09-06T23:39:51.929Z,21.10
2023-09-06T23:44:54.550Z,14.60
2023-09-06T23:49:56.986Z,16.00
2023-09-06T23:54:59.620Z,17.60
